Tatiana 1 — 9HA2824 — position and weather

sailwx.info

Track history (hours):
 
Tides and Currents Weather Stations Pressure Air Temp Water Temp Dewpoint Dewpoint Depression Visibility Wind Speed Wind Dir Waves Ship Positions

Tatiana 1

Last reported at 2016-Jun-21 11:20 UTC. Time now 2016-Jul-01 02:49 UTC.
Position N 42°34' E 018°11'.
Warning: this ship's position is 9 days out of date.

Length 47 m; draft 1.7 m.

Type: Other ship. MMSI: 256188000.

Date/timePositionNaut miles runAvg speedWind from/ knotsBaromVisibWave heightAir tempDewpointWater temp
2016-Jun-21 11:20N 42°34' E 018°11'910.9
2016-Jun-21 10:34N 42°28' E 018°19'1110.8
2016-Jun-21 09:33N 42°23' E 018°32'7 7.3
2016-Jun-21 08:33N 42°26' E 018°41'0 0.0
2016-Jun-21 07:33N 42°26' E 018°41'0 0.0
2016-Jun-21 04:33N 42°26' E 018°41'0 0.0
2016-Jun-21 03:33N 42°26' E 018°41'0 0.0
2016-Jun-21 02:33N 42°26' E 018°41'0 0.0
2016-Jun-21 01:33N 42°26' E 018°41'0 0.0
2016-Jun-21 00:33N 42°26' E 018°41'0 0.0
2016-Jun-20 23:33N 42°26' E 018°41'0 0.0
2016-Jun-20 22:33N 42°26' E 018°41'0 0.0
2016-Jun-20 21:33N 42°26' E 018°41'0 0.0
2016-Jun-20 20:33N 42°26' E 018°41'0 0.0
2016-Jun-20 19:33N 42°26' E 018°41'0 0.0
2016-Jun-20 18:33N 42°26' E 018°41'0 0.0
2016-Jun-20 17:33N 42°26' E 018°41'0 0.3
2016-Jun-20 16:31N 42°26' E 018°41'1 1.2
2016-Jun-20 15:34N 42°27' E 018°41'1 1.2
2016-Jun-20 14:34N 42°26' E 018°41'0 0.0
2016-Jun-20 13:32N 42°26' E 018°41'0 0.0
2016-Jun-20 12:32N 42°26' E 018°41'0 0.0
2016-Jun-20 11:32N 42°26' E 018°41'0 0.0
2016-Jun-20 10:32N 42°26' E 018°41'0 0.0
2016-Jun-20 09:32N 42°26' E 018°41'0 0.0
2016-Jun-20 08:32N 42°26' E 018°41'0 0.0
2016-Jun-20 07:32N 42°26' E 018°41'0 0.3
2016-Jun-20 06:31N 42°26' E 018°41'0 0.0
2016-Jun-20 05:31N 42°26' E 018°41'0 0.0
2016-Jun-20 04:31N 42°26' E 018°41'0 0.0
2016-Jun-20 03:31N 42°26' E 018°41'0 0.0
2016-Jun-20 02:31N 42°26' E 018°41'0 0.0
2016-Jun-20 01:31N 42°26' E 018°41'0 0.0
2016-Jun-20 00:31N 42°26' E 018°41'0 0.0
2016-Jun-19 23:31N 42°26' E 018°41'4 4.1
2016-Jun-19 22:34N 42°26' E 018°36'  
2016-Jun-11 13:27N 42°32' E 018°10'1314.3
2016-Jun-11 12:34N 42°26' E 018°25'9 9.5
2016-Jun-11 11:33N 42°26' E 018°38'  
Track history (hours):
 
Tides and Currents Weather Stations Pressure Air Temp Water Temp Dewpoint Dewpoint Depression Visibility Wind Speed Wind Dir Waves Ship Positions

Tatiana 1

Last reported at 2016-Jun-21 11:20 UTC. Time now 2016-Jul-01 02:49 UTC.
Position N 42°34' E 018°11'.
Warning: this ship's position is 9 days out of date.

Length 47 m; draft 1.7 m.

Type: Other ship. MMSI: 256188000.

Date/timePositionNaut miles runAvg speedWind from/ knotsBaromVisibWave heightAir tempDewpointWater temp
2016-Jun-21 11:20N 42°34' E 018°11'910.9
2016-Jun-21 10:34N 42°28' E 018°19'1110.8
2016-Jun-21 09:33N 42°23' E 018°32'7 7.3
2016-Jun-21 08:33N 42°26' E 018°41'0 0.0
2016-Jun-21 07:33N 42°26' E 018°41'0 0.0
2016-Jun-21 04:33N 42°26' E 018°41'0 0.0
2016-Jun-21 03:33N 42°26' E 018°41'0 0.0
2016-Jun-21 02:33N 42°26' E 018°41'0 0.0
2016-Jun-21 01:33N 42°26' E 018°41'0 0.0
2016-Jun-21 00:33N 42°26' E 018°41'0 0.0
2016-Jun-20 23:33N 42°26' E 018°41'0 0.0
2016-Jun-20 22:33N 42°26' E 018°41'0 0.0
2016-Jun-20 21:33N 42°26' E 018°41'0 0.0
2016-Jun-20 20:33N 42°26' E 018°41'0 0.0
2016-Jun-20 19:33N 42°26' E 018°41'0 0.0
2016-Jun-20 18:33N 42°26' E 018°41'0 0.0
2016-Jun-20 17:33N 42°26' E 018°41'0 0.3
2016-Jun-20 16:31N 42°26' E 018°41'1 1.2
2016-Jun-20 15:34N 42°27' E 018°41'1 1.2
2016-Jun-20 14:34N 42°26' E 018°41'0 0.0
2016-Jun-20 13:32N 42°26' E 018°41'0 0.0
2016-Jun-20 12:32N 42°26' E 018°41'0 0.0
2016-Jun-20 11:32N 42°26' E 018°41'0 0.0
2016-Jun-20 10:32N 42°26' E 018°41'0 0.0
2016-Jun-20 09:32N 42°26' E 018°41'0 0.0
2016-Jun-20 08:32N 42°26' E 018°41'0 0.0
2016-Jun-20 07:32N 42°26' E 018°41'0 0.3
2016-Jun-20 06:31N 42°26' E 018°41'0 0.0
2016-Jun-20 05:31N 42°26' E 018°41'0 0.0
2016-Jun-20 04:31N 42°26' E 018°41'0 0.0
2016-Jun-20 03:31N 42°26' E 018°41'0 0.0
2016-Jun-20 02:31N 42°26' E 018°41'0 0.0
2016-Jun-20 01:31N 42°26' E 018°41'0 0.0
2016-Jun-20 00:31N 42°26' E 018°41'0 0.0
2016-Jun-19 23:31N 42°26' E 018°41'4 4.1
2016-Jun-19 22:34N 42°26' E 018°36'  
2016-Jun-11 13:27N 42°32' E 018°10'1314.3
2016-Jun-11 12:34N 42°26' E 018°25'9 9.5
2016-Jun-11 11:33N 42°26' E 018°38'  

Dump ship's entire track history